PNQ weather

Pune Airport
Pune, Maharashtra, India

Public forecast

Using degrees Celsius for public forecast. Weather courtesy of forecast.io.

Current aviation weather report (METAR) for Pune Airport

Report is more than 6 hours old.

Retrieved 2020/05/19 06:30 UTC (3 months ago):

VAPO 190630Z 32010KT 9999 FEW030 SCT300 35/18 Q1008 NOSIG

Aviation forecast (TAF) for Pune Airport

Retrieved 2020-08-05 00:30 UTC (4 hours ago):

TAF VAPO 042130Z 0500/0512 25010KT 6000 RA SCT010 SCT025 BKN090 TEMPO 0501/0505 4000 RA SCT015 SCT025 BKN090 TEMPO 0508/0512 2000 SHRA SCT010 SCT020 BKN080